sensor_id;sensor_type;location;lat;lon;timestamp;P1;durP1;ratioP1;P2;durP2;ratioP2
52918;SDS011;38793;52.690;6.812;2023-09-12T00:00:33;53.92;;;42.25;;
52918;SDS011;38793;52.690;6.812;2023-09-12T00:05:24;52.80;;;39.78;;
52918;SDS011;38793;52.690;6.812;2023-09-12T00:10:16;49.53;;;38.60;;
52918;SDS011;38793;52.690;6.812;2023-09-12T00:15:08;50.00;;;39.30;;
52918;SDS011;38793;52.690;6.812;2023-09-12T00:19:59;52.35;;;41.97;;
52918;SDS011;38793;52.690;6.812;2023-09-12T00:24:50;42.65;;;35.30;;
52918;SDS011;38793;52.690;6.812;2023-09-12T00:29:41;54.13;;;40.80;;
52918;SDS011;38793;52.690;6.812;2023-09-12T00:34:32;61.30;;;45.50;;
52918;SDS011;38793;52.690;6.812;2023-09-12T00:39:23;57.88;;;44.70;;
52918;SDS011;38793;52.690;6.812;2023-09-12T00:44:14;68.97;;;49.97;;
52918;SDS011;38793;52.690;6.812;2023-09-12T00:46:40;65.32;;;49.80;;
52918;SDS011;38793;52.690;6.812;2023-09-12T00:49:08;69.22;;;49.78;;
52918;SDS011;38793;52.690;6.812;2023-09-12T00:51:35;66.72;;;47.08;;
52918;SDS011;38793;52.690;6.812;2023-09-12T00:54:01;63.45;;;45.90;;
52918;SDS011;38793;52.690;6.812;2023-09-12T00:56:27;61.22;;;46.92;;
52918;SDS011;38793;52.690;6.812;2023-09-12T01:01:19;52.33;;;39.78;;
52918;SDS011;38793;52.690;6.812;2023-09-12T01:03:46;54.00;;;44.10;;
52918;SDS011;38793;52.690;6.812;2023-09-12T01:08:37;60.85;;;44.65;;
52918;SDS011;38793;52.690;6.812;2023-09-12T01:13:29;52.47;;;39.22;;
52918;SDS011;38793;52.690;6.812;2023-09-12T01:15:55;58.95;;;44.70;;
52918;SDS011;38793;52.690;6.812;2023-09-12T01:18:21;58.72;;;44.30;;
52918;SDS011;38793;52.690;6.812;2023-09-12T01:21:12;60.92;;;45.55;;
52918;SDS011;38793;52.690;6.812;2023-09-12T01:24:30;56.53;;;42.55;;
52918;SDS011;38793;52.690;6.812;2023-09-12T01:29:57;50.57;;;40.27;;
52918;SDS011;38793;52.690;6.812;2023-09-12T01:32:26;51.78;;;41.50;;
52918;SDS011;38793;52.690;6.812;2023-09-12T01:34:53;48.28;;;41.22;;
52918;SDS011;38793;52.690;6.812;2023-09-12T01:39:44;92.95;;;44.55;;
52918;SDS011;38793;52.690;6.812;2023-09-12T01:44:38;67.05;;;49.47;;
52918;SDS011;38793;52.690;6.812;2023-09-12T01:47:04;64.82;;;49.42;;
52918;SDS011;38793;52.690;6.812;2023-09-12T01:49:31;72.32;;;50.13;;
52918;SDS011;38793;52.690;6.812;2023-09-12T01:51:58;69.60;;;50.70;;
52918;SDS011;38793;52.690;6.812;2023-09-12T01:54:25;68.43;;;49.15;;
52918;SDS011;38793;52.690;6.812;2023-09-12T01:56:52;75.38;;;51.60;;
52918;SDS011;38793;52.690;6.812;2023-09-12T01:59:22;69.32;;;49.33;;
52918;SDS011;38793;52.690;6.812;2023-09-12T02:01:48;67.32;;;48.78;;
52918;SDS011;38793;52.690;6.812;2023-09-12T02:04:14;69.57;;;49.00;;
52918;SDS011;38793;52.690;6.812;2023-09-12T02:09:05;73.05;;;50.83;;
52918;SDS011;38793;52.690;6.812;2023-09-12T02:11:31;66.10;;;48.45;;
52918;SDS011;38793;52.690;6.812;2023-09-12T02:16:22;54.92;;;43.28;;
52918;SDS011;38793;52.690;6.812;2023-09-12T02:21:13;56.88;;;43.88;;
52918;SDS011;38793;52.690;6.812;2023-09-12T02:23:40;54.17;;;43.53;;
52918;SDS011;38793;52.690;6.812;2023-09-12T02:26:06;51.88;;;40.95;;
52918;SDS011;38793;52.690;6.812;2023-09-12T02:30:57;46.38;;;38.47;;
52918;SDS011;38793;52.690;6.812;2023-09-12T02:35:49;51.80;;;41.13;;
52918;SDS011;38793;52.690;6.812;2023-09-12T02:38:17;55.10;;;44.55;;
52918;SDS011;38793;52.690;6.812;2023-09-12T02:40:43;56.40;;;45.35;;
52918;SDS011;38793;52.690;6.812;2023-09-12T02:43:09;54.00;;;40.67;;
52918;SDS011;38793;52.690;6.812;2023-09-12T02:45:35;43.72;;;35.65;;
52918;SDS011;38793;52.690;6.812;2023-09-12T02:50:26;74.30;;;36.83;;
52918;SDS011;38793;52.690;6.812;2023-09-12T02:55:17;49.22;;;37.80;;
52918;SDS011;38793;52.690;6.812;2023-09-12T03:00:08;48.53;;;39.88;;
52918;SDS011;38793;52.690;6.812;2023-09-12T03:02:34;43.97;;;37.80;;
52918;SDS011;38793;52.690;6.812;2023-09-12T03:05:00;188.63;;;48.38;;
52918;SDS011;38793;52.690;6.812;2023-09-12T03:07:26;49.90;;;33.67;;
52918;SDS011;38793;52.690;6.812;2023-09-12T03:09:52;52.90;;;36.13;;
52918;SDS011;38793;52.690;6.812;2023-09-12T03:14:43;45.38;;;32.70;;
52918;SDS011;38793;52.690;6.812;2023-09-12T03:19:34;40.63;;;34.60;;
52918;SDS011;38793;52.690;6.812;2023-09-12T03:22:00;45.20;;;36.50;;
52918;SDS011;38793;52.690;6.812;2023-09-12T03:24:28;117.03;;;32.55;;
52918;SDS011;38793;52.690;6.812;2023-09-12T03:26:54;46.63;;;28.85;;
52918;SDS011;38793;52.690;6.812;2023-09-12T03:29:20;54.38;;;28.35;;
52918;SDS011;38793;52.690;6.812;2023-09-12T03:34:11;104.43;;;34.28;;
52918;SDS011;38793;52.690;6.812;2023-09-12T03:39:02;101.72;;;32.08;;
52918;SDS011;38793;52.690;6.812;2023-09-12T03:41:30;40.33;;;31.13;;
52918;SDS011;38793;52.690;6.812;2023-09-12T03:43:56;173.07;;;35.80;;
52918;SDS011;38793;52.690;6.812;2023-09-12T03:46:21;213.32;;;38.05;;
52918;SDS011;38793;52.690;6.812;2023-09-12T03:51:13;80.22;;;33.83;;
52918;SDS011;38793;52.690;6.812;2023-09-12T03:53:39;100.45;;;36.33;;
52918;SDS011;38793;52.690;6.812;2023-09-12T03:58:31;106.32;;;38.72;;
52918;SDS011;38793;52.690;6.812;2023-09-12T04:00:56;284.98;;;44.50;;
52918;SDS011;38793;52.690;6.812;2023-09-12T04:05:50;178.88;;;41.63;;
52918;SDS011;38793;52.690;6.812;2023-09-12T04:08:16;140.98;;;41.03;;
52918;SDS011;38793;52.690;6.812;2023-09-12T04:10:42;316.73;;;45.83;;
52918;SDS011;38793;52.690;6.812;2023-09-12T04:13:08;306.95;;;52.75;;
52918;SDS011;38793;52.690;6.812;2023-09-12T04:15:34;99.00;;;43.03;;
52918;SDS011;38793;52.690;6.812;2023-09-12T04:20:25;87.47;;;41.33;;
52918;SDS011;38793;52.690;6.812;2023-09-12T04:22:50;96.50;;;45.22;;
52918;SDS011;38793;52.690;6.812;2023-09-12T04:27:42;73.72;;;45.10;;
52918;SDS011;38793;52.690;6.812;2023-09-12T04:30:08;63.80;;;46.05;;
52918;SDS011;38793;52.690;6.812;2023-09-12T04:32:34;75.18;;;44.28;;
52918;SDS011;38793;52.690;6.812;2023-09-12T04:35:00;121.72;;;48.13;;
52918;SDS011;38793;52.690;6.812;2023-09-12T04:37:25;65.57;;;44.50;;
52918;SDS011;38793;52.690;6.812;2023-09-12T04:39:54;81.00;;;44.53;;
52918;SDS011;38793;52.690;6.812;2023-09-12T04:42:20;80.93;;;46.70;;
52918;SDS011;38793;52.690;6.812;2023-09-12T04:44:45;64.15;;;45.28;;
52918;SDS011;38793;52.690;6.812;2023-09-12T04:47:11;60.20;;;44.42;;
52918;SDS011;38793;52.690;6.812;2023-09-12T04:52:03;49.33;;;41.55;;
52918;SDS011;38793;52.690;6.812;2023-09-12T04:56:55;99.22;;;45.03;;
52918;SDS011;38793;52.690;6.812;2023-09-12T05:01:46;106.28;;;44.45;;
52918;SDS011;38793;52.690;6.812;2023-09-12T05:04:12;108.30;;;46.97;;
52918;SDS011;38793;52.690;6.812;2023-09-12T05:06:37;67.90;;;43.78;;
52918;SDS011;38793;52.690;6.812;2023-09-12T05:09:03;63.40;;;44.25;;
52918;SDS011;38793;52.690;6.812;2023-09-12T05:11:30;73.18;;;44.63;;
52918;SDS011;38793;52.690;6.812;2023-09-12T05:13:56;60.67;;;41.67;;
52918;SDS011;38793;52.690;6.812;2023-09-12T05:16:21;51.38;;;40.65;;
52918;SDS011;38793;52.690;6.812;2023-09-12T05:18:47;63.60;;;43.97;;
52918;SDS011;38793;52.690;6.812;2023-09-12T05:21:14;61.00;;;43.25;;
52918;SDS011;38793;52.690;6.812;2023-09-12T05:23:40;55.97;;;41.80;;
52918;SDS011;38793;52.690;6.812;2023-09-12T05:28:31;58.38;;;43.35;;
52918;SDS011;38793;52.690;6.812;2023-09-12T05:33:22;53.13;;;40.05;;
52918;SDS011;38793;52.690;6.812;2023-09-12T05:38:13;55.80;;;40.28;;
52918;SDS011;38793;52.690;6.812;2023-09-12T05:43:04;59.53;;;41.50;;
52918;SDS011;38793;52.690;6.812;2023-09-12T05:47:57;60.63;;;42.95;;
52918;SDS011;38793;52.690;6.812;2023-09-12T05:50:23;61.47;;;41.92;;
52918;SDS011;38793;52.690;6.812;2023-09-12T05:52:49;64.20;;;44.78;;
52918;SDS011;38793;52.690;6.812;2023-09-12T05:55:15;68.35;;;44.80;;
52918;SDS011;38793;52.690;6.812;2023-09-12T05:57:41;62.33;;;44.75;;
52918;SDS011;38793;52.690;6.812;2023-09-12T06:02:37;70.22;;;44.97;;
52918;SDS011;38793;52.690;6.812;2023-09-12T06:05:03;70.22;;;46.33;;
52918;SDS011;38793;52.690;6.812;2023-09-12T06:09:55;67.32;;;45.63;;
52918;SDS011;38793;52.690;6.812;2023-09-12T06:12:21;64.55;;;44.40;;
52918;SDS011;38793;52.690;6.812;2023-09-12T06:14:47;69.72;;;46.90;;
52918;SDS011;38793;52.690;6.812;2023-09-12T06:17:13;64.25;;;45.25;;
52918;SDS011;38793;52.690;6.812;2023-09-12T06:22:04;77.63;;;49.80;;
52918;SDS011;38793;52.690;6.812;2023-09-12T06:24:30;70.70;;;49.30;;
52918;SDS011;38793;52.690;6.812;2023-09-12T06:29:22;79.03;;;48.90;;
52918;SDS011;38793;52.690;6.812;2023-09-12T06:31:47;75.45;;;48.92;;
52918;SDS011;38793;52.690;6.812;2023-09-12T06:36:39;75.30;;;48.25;;
52918;SDS011;38793;52.690;6.812;2023-09-12T06:39:06;61.92;;;44.63;;
52918;SDS011;38793;52.690;6.812;2023-09-12T06:41:32;64.50;;;46.20;;
52918;SDS011;38793;52.690;6.812;2023-09-12T06:43:57;66.45;;;46.28;;
52918;SDS011;38793;52.690;6.812;2023-09-12T06:48:49;69.82;;;49.30;;
52918;SDS011;38793;52.690;6.812;2023-09-12T06:51:15;71.15;;;47.35;;
52918;SDS011;38793;52.690;6.812;2023-09-12T06:53:41;69.90;;;49.30;;
52918;SDS011;38793;52.690;6.812;2023-09-12T06:56:07;67.30;;;44.80;;
52918;SDS011;38793;52.690;6.812;2023-09-12T06:58:33;66.30;;;45.42;;
52918;SDS011;38793;52.690;6.812;2023-09-12T07:03:28;68.88;;;44.40;;
52918;SDS011;38793;52.690;6.812;2023-09-12T07:05:53;79.20;;;49.95;;
52918;SDS011;38793;52.690;6.812;2023-09-12T07:08:19;71.05;;;48.15;;
52918;SDS011;38793;52.690;6.812;2023-09-12T07:10:45;64.65;;;43.92;;
52918;SDS011;38793;52.690;6.812;2023-09-12T07:15:36;68.78;;;44.13;;
52918;SDS011;38793;52.690;6.812;2023-09-12T07:20:27;62.10;;;43.00;;
52918;SDS011;38793;52.690;6.812;2023-09-12T07:25:18;67.43;;;43.22;;
52918;SDS011;38793;52.690;6.812;2023-09-12T07:27:46;69.25;;;44.33;;
52918;SDS011;38793;52.690;6.812;2023-09-12T07:30:11;61.65;;;40.97;;
52918;SDS011;38793;52.690;6.812;2023-09-12T07:35:03;67.20;;;45.50;;
52918;SDS011;38793;52.690;6.812;2023-09-12T07:39:54;69.57;;;45.33;;
52918;SDS011;38793;52.690;6.812;2023-09-12T07:42:23;67.45;;;44.53;;
52918;SDS011;38793;52.690;6.812;2023-09-12T07:44:49;66.53;;;45.60;;
52918;SDS011;38793;52.690;6.812;2023-09-12T07:47:15;65.45;;;43.58;;
52918;SDS011;38793;52.690;6.812;2023-09-12T07:49:40;69.50;;;46.90;;
52918;SDS011;38793;52.690;6.812;2023-09-12T07:52:06;72.38;;;49.95;;
52918;SDS011;38793;52.690;6.812;2023-09-12T07:56:57;66.40;;;46.10;;
52918;SDS011;38793;52.690;6.812;2023-09-12T08:01:49;62.10;;;44.10;;
52918;SDS011;38793;52.690;6.812;2023-09-12T08:04:14;66.07;;;43.67;;
52918;SDS011;38793;52.690;6.812;2023-09-12T08:09:06;71.85;;;43.75;;
52918;SDS011;38793;52.690;6.812;2023-09-12T08:11:33;71.93;;;45.38;;
52918;SDS011;38793;52.690;6.812;2023-09-12T08:13:58;64.20;;;45.30;;
52918;SDS011;38793;52.690;6.812;2023-09-12T08:16:24;67.40;;;44.67;;
52918;SDS011;38793;52.690;6.812;2023-09-12T08:21:15;62.22;;;40.28;;
52918;SDS011;38793;52.690;6.812;2023-09-12T08:26:06;54.92;;;40.38;;
52918;SDS011;38793;52.690;6.812;2023-09-12T08:28:34;63.17;;;41.67;;
52918;SDS011;38793;52.690;6.812;2023-09-12T08:30:59;62.00;;;39.42;;
52918;SDS011;38793;52.690;6.812;2023-09-12T08:35:51;58.05;;;40.00;;
52918;SDS011;38793;52.690;6.812;2023-09-12T08:40:47;55.28;;;38.83;;
52918;SDS011;38793;52.690;6.812;2023-09-12T08:43:16;57.25;;;40.17;;
52918;SDS011;38793;52.690;6.812;2023-09-12T08:45:42;60.85;;;42.70;;
52918;SDS011;38793;52.690;6.812;2023-09-12T08:48:11;69.90;;;43.42;;
52918;SDS011;38793;52.690;6.812;2023-09-12T08:50:38;61.75;;;43.50;;
52918;SDS011;38793;52.690;6.812;2023-09-12T08:55:30;60.30;;;41.47;;
52918;SDS011;38793;52.690;6.812;2023-09-12T08:57:58;60.58;;;43.33;;
52918;SDS011;38793;52.690;6.812;2023-09-12T09:00:24;64.10;;;44.13;;
52918;SDS011;38793;52.690;6.812;2023-09-12T09:02:52;66.18;;;45.05;;
52918;SDS011;38793;52.690;6.812;2023-09-12T09:05:18;63.45;;;43.97;;
52918;SDS011;38793;52.690;6.812;2023-09-12T09:07:47;64.93;;;44.35;;
52918;SDS011;38793;52.690;6.812;2023-09-12T09:10:15;67.53;;;45.42;;
52918;SDS011;38793;52.690;6.812;2023-09-12T09:12:43;66.65;;;43.75;;
52918;SDS011;38793;52.690;6.812;2023-09-12T09:18:06;66.90;;;44.63;;
52918;SDS011;38793;52.690;6.812;2023-09-12T09:20:33;60.97;;;41.75;;
52918;SDS011;38793;52.690;6.812;2023-09-12T09:23:03;56.92;;;41.20;;
52918;SDS011;38793;52.690;6.812;2023-09-12T09:25:36;53.20;;;39.60;;
52918;SDS011;38793;52.690;6.812;2023-09-12T09:28:15;52.33;;;39.08;;
52918;SDS011;38793;52.690;6.812;2023-09-12T09:33:10;51.95;;;36.65;;
52918;SDS011;38793;52.690;6.812;2023-09-12T09:35:36;47.55;;;36.67;;
52918;SDS011;38793;52.690;6.812;2023-09-12T09:38:03;47.42;;;35.67;;
52918;SDS011;38793;52.690;6.812;2023-09-12T09:40:31;49.50;;;37.10;;
52918;SDS011;38793;52.690;6.812;2023-09-12T09:42:58;50.55;;;36.88;;
52918;SDS011;38793;52.690;6.812;2023-09-12T09:45:25;50.30;;;35.60;;
52918;SDS011;38793;52.690;6.812;2023-09-12T09:47:51;47.83;;;34.97;;
52918;SDS011;38793;52.690;6.812;2023-09-12T09:52:43;40.75;;;31.48;;
52918;SDS011;38793;52.690;6.812;2023-09-12T09:55:15;42.30;;;32.70;;
52918;SDS011;38793;52.690;6.812;2023-09-12T09:57:41;39.50;;;31.08;;
52918;SDS011;38793;52.690;6.812;2023-09-12T10:02:36;39.83;;;29.85;;
52918;SDS011;38793;52.690;6.812;2023-09-12T10:05:05;37.83;;;29.63;;
52918;SDS011;38793;52.690;6.812;2023-09-12T10:07:32;39.28;;;30.20;;
52918;SDS011;38793;52.690;6.812;2023-09-12T10:09:58;40.92;;;31.88;;
52918;SDS011;38793;52.690;6.812;2023-09-12T10:12:27;39.05;;;30.02;;
52918;SDS011;38793;52.690;6.812;2023-09-12T10:15:00;37.40;;;31.08;;
52918;SDS011;38793;52.690;6.812;2023-09-12T10:17:28;40.75;;;31.23;;
52918;SDS011;38793;52.690;6.812;2023-09-12T10:20:01;36.53;;;30.80;;
52918;SDS011;38793;52.690;6.812;2023-09-12T10:22:35;38.00;;;32.25;;
52918;SDS011;38793;52.690;6.812;2023-09-12T10:25:04;36.97;;;30.92;;
52918;SDS011;38793;52.690;6.812;2023-09-12T10:27:31;36.38;;;28.77;;
52918;SDS011;38793;52.690;6.812;2023-09-12T10:29:58;33.53;;;26.13;;
52918;SDS011;38793;52.690;6.812;2023-09-12T10:32:25;30.75;;;25.98;;
52918;SDS011;38793;52.690;6.812;2023-09-12T10:34:53;34.10;;;27.17;;
52918;SDS011;38793;52.690;6.812;2023-09-12T10:37:23;30.70;;;26.15;;
52918;SDS011;38793;52.690;6.812;2023-09-12T10:39:52;36.92;;;27.85;;
52918;SDS011;38793;52.690;6.812;2023-09-12T10:42:19;30.50;;;25.65;;
52918;SDS011;38793;52.690;6.812;2023-09-12T10:44:46;39.17;;;26.08;;
52918;SDS011;38793;52.690;6.812;2023-09-12T10:47:11;31.70;;;25.92;;
52918;SDS011;38793;52.690;6.812;2023-09-12T10:49:39;27.85;;;24.25;;
52918;SDS011;38793;52.690;6.812;2023-09-12T10:52:08;28.48;;;24.63;;
52918;SDS011;38793;52.690;6.812;2023-09-12T10:54:37;33.17;;;25.80;;
52918;SDS011;38793;52.690;6.812;2023-09-12T10:57:05;30.73;;;26.08;;
52918;SDS011;38793;52.690;6.812;2023-09-12T10:59:36;32.38;;;26.35;;
52918;SDS011;38793;52.690;6.812;2023-09-12T11:02:32;29.67;;;25.52;;
52918;SDS011;38793;52.690;6.812;2023-09-12T11:05:00;30.25;;;23.50;;
52918;SDS011;38793;52.690;6.812;2023-09-12T11:07:29;30.50;;;24.08;;
52918;SDS011;38793;52.690;6.812;2023-09-12T11:12:49;35.50;;;26.73;;
52918;SDS011;38793;52.690;6.812;2023-09-12T11:15:16;30.98;;;25.58;;
52918;SDS011;38793;52.690;6.812;2023-09-12T11:17:42;30.42;;;25.08;;
52918;SDS011;38793;52.690;6.812;2023-09-12T11:20:09;29.08;;;25.73;;
52918;SDS011;38793;52.690;6.812;2023-09-12T11:22:37;31.70;;;27.27;;
52918;SDS011;38793;52.690;6.812;2023-09-12T11:25:19;30.08;;;25.13;;
52918;SDS011;38793;52.690;6.812;2023-09-12T11:30:17;38.38;;;29.20;;
52918;SDS011;38793;52.690;6.812;2023-09-12T11:32:47;34.00;;;24.00;;
52918;SDS011;38793;52.690;6.812;2023-09-12T11:35:15;29.77;;;25.17;;
52918;SDS011;38793;52.690;6.812;2023-09-12T11:37:48;31.38;;;26.30;;
52918;SDS011;38793;52.690;6.812;2023-09-12T11:42:42;30.42;;;23.55;;
52918;SDS011;38793;52.690;6.812;2023-09-12T11:45:09;32.33;;;25.17;;
52918;SDS011;38793;52.690;6.812;2023-09-12T11:47:39;28.60;;;23.30;;
52918;SDS011;38793;52.690;6.812;2023-09-12T11:50:06;29.58;;;24.52;;
52918;SDS011;38793;52.690;6.812;2023-09-12T11:52:35;30.65;;;24.23;;
52918;SDS011;38793;52.690;6.812;2023-09-12T11:55:02;31.35;;;23.40;;
52918;SDS011;38793;52.690;6.812;2023-09-12T11:57:28;26.75;;;21.05;;
52918;SDS011;38793;52.690;6.812;2023-09-12T11:59:55;26.10;;;20.63;;
52918;SDS011;38793;52.690;6.812;2023-09-12T12:02:21;23.45;;;20.90;;
52918;SDS011;38793;52.690;6.812;2023-09-12T12:04:48;23.17;;;19.60;;
52918;SDS011;38793;52.690;6.812;2023-09-12T12:07:15;23.38;;;17.98;;
52918;SDS011;38793;52.690;6.812;2023-09-12T12:09:41;23.90;;;18.88;;
52918;SDS011;38793;52.690;6.812;2023-09-12T12:12:13;22.17;;;19.23;;
52918;SDS011;38793;52.690;6.812;2023-09-12T12:14:40;24.50;;;20.52;;
52918;SDS011;38793;52.690;6.812;2023-09-12T12:17:09;26.48;;;20.48;;
52918;SDS011;38793;52.690;6.812;2023-09-12T12:19:37;20.70;;;18.35;;
52918;SDS011;38793;52.690;6.812;2023-09-12T12:22:04;22.40;;;19.40;;
52918;SDS011;38793;52.690;6.812;2023-09-12T12:24:37;21.73;;;18.92;;
52918;SDS011;38793;52.690;6.812;2023-09-12T12:27:03;22.20;;;18.25;;
52918;SDS011;38793;52.690;6.812;2023-09-12T12:29:29;25.10;;;20.00;;
52918;SDS011;38793;52.690;6.812;2023-09-12T12:31:59;19.67;;;17.33;;
52918;SDS011;38793;52.690;6.812;2023-09-12T12:34:26;23.65;;;18.20;;
52918;SDS011;38793;52.690;6.812;2023-09-12T12:36:53;21.98;;;18.42;;
52918;SDS011;38793;52.690;6.812;2023-09-12T12:39:20;21.40;;;18.95;;
52918;SDS011;38793;52.690;6.812;2023-09-12T12:41:47;18.05;;;16.10;;
52918;SDS011;38793;52.690;6.812;2023-09-12T12:44:12;17.85;;;14.98;;
52918;SDS011;38793;52.690;6.812;2023-09-12T12:49:15;18.98;;;16.92;;
52918;SDS011;38793;52.690;6.812;2023-09-12T12:51:42;19.35;;;17.35;;
52918;SDS011;38793;52.690;6.812;2023-09-12T12:54:08;22.80;;;16.50;;
52918;SDS011;38793;52.690;6.812;2023-09-12T12:56:33;19.50;;;16.00;;
52918;SDS011;38793;52.690;6.812;2023-09-12T12:59:00;18.27;;;15.73;;
52918;SDS011;38793;52.690;6.812;2023-09-12T13:01:33;19.33;;;14.73;;
52918;SDS011;38793;52.690;6.812;2023-09-12T13:03:59;16.35;;;14.65;;
52918;SDS011;38793;52.690;6.812;2023-09-12T13:06:25;16.20;;;14.35;;
52918;SDS011;38793;52.690;6.812;2023-09-12T13:08:53;16.58;;;13.75;;
52918;SDS011;38793;52.690;6.812;2023-09-12T13:11:19;21.80;;;14.15;;
52918;SDS011;38793;52.690;6.812;2023-09-12T13:13:47;15.43;;;12.70;;
52918;SDS011;38793;52.690;6.812;2023-09-12T13:16:14;16.00;;;13.23;;
52918;SDS011;38793;52.690;6.812;2023-09-12T13:18:40;13.82;;;12.32;;
52918;SDS011;38793;52.690;6.812;2023-09-12T13:21:06;14.57;;;12.65;;
52918;SDS011;38793;52.690;6.812;2023-09-12T13:23:35;12.10;;;10.82;;
52918;SDS011;38793;52.690;6.812;2023-09-12T13:26:02;15.77;;;12.23;;
52918;SDS011;38793;52.690;6.812;2023-09-12T13:28:28;13.38;;;10.70;;
52918;SDS011;38793;52.690;6.812;2023-09-12T13:30:55;13.73;;;11.85;;
52918;SDS011;38793;52.690;6.812;2023-09-12T13:33:22;13.55;;;12.07;;
52918;SDS011;38793;52.690;6.812;2023-09-12T13:35:48;15.45;;;12.25;;
52918;SDS011;38793;52.690;6.812;2023-09-12T13:38:15;17.67;;;11.90;;
52918;SDS011;38793;52.690;6.812;2023-09-12T13:40:43;13.07;;;10.77;;
52918;SDS011;38793;52.690;6.812;2023-09-12T13:43:09;13.70;;;11.57;;
52918;SDS011;38793;52.690;6.812;2023-09-12T13:45:35;12.85;;;9.95;;
52918;SDS011;38793;52.690;6.812;2023-09-12T13:48:04;12.57;;;10.93;;
52918;SDS011;38793;52.690;6.812;2023-09-12T13:50:30;12.85;;;10.75;;
52918;SDS011;38793;52.690;6.812;2023-09-12T13:52:58;11.55;;;9.15;;
52918;SDS011;38793;52.690;6.812;2023-09-12T13:55:25;10.18;;;7.93;;
52918;SDS011;38793;52.690;6.812;2023-09-12T13:57:51;12.88;;;9.20;;
52918;SDS011;38793;52.690;6.812;2023-09-12T14:00:16;13.82;;;10.00;;
52918;SDS011;38793;52.690;6.812;2023-09-12T14:02:42;9.52;;;8.45;;
52918;SDS011;38793;52.690;6.812;2023-09-12T14:05:09;11.65;;;9.07;;
52918;SDS011;38793;52.690;6.812;2023-09-12T14:07:36;10.57;;;9.48;;
52918;SDS011;38793;52.690;6.812;2023-09-12T14:10:03;13.40;;;10.32;;
52918;SDS011;38793;52.690;6.812;2023-09-12T14:12:29;12.02;;;8.85;;
52918;SDS011;38793;52.690;6.812;2023-09-12T14:14:55;10.25;;;8.27;;
52918;SDS011;38793;52.690;6.812;2023-09-12T14:17:20;13.63;;;10.43;;
52918;SDS011;38793;52.690;6.812;2023-09-12T14:19:46;12.30;;;10.00;;
52918;SDS011;38793;52.690;6.812;2023-09-12T14:22:11;13.18;;;10.18;;
52918;SDS011;38793;52.690;6.812;2023-09-12T14:24:37;10.77;;;9.52;;
52918;SDS011;38793;52.690;6.812;2023-09-12T14:27:03;9.32;;;8.43;;
52918;SDS011;38793;52.690;6.812;2023-09-12T14:29:29;9.57;;;8.25;;
52918;SDS011;38793;52.690;6.812;2023-09-12T14:31:55;9.93;;;8.93;;
52918;SDS011;38793;52.690;6.812;2023-09-12T14:34:24;9.40;;;7.57;;
52918;SDS011;38793;52.690;6.812;2023-09-12T14:36:54;13.38;;;9.70;;
52918;SDS011;38793;52.690;6.812;2023-09-12T14:39:20;9.65;;;7.00;;
52918;SDS011;38793;52.690;6.812;2023-09-12T14:41:46;10.82;;;7.93;;
52918;SDS011;38793;52.690;6.812;2023-09-12T14:44:17;11.13;;;7.00;;
52918;SDS011;38793;52.690;6.812;2023-09-12T14:46:43;7.93;;;7.03;;
52918;SDS011;38793;52.690;6.812;2023-09-12T14:49:09;10.32;;;6.65;;
52918;SDS011;38793;52.690;6.812;2023-09-12T14:51:35;7.18;;;5.93;;
52918;SDS011;38793;52.690;6.812;2023-09-12T14:54:04;6.97;;;6.10;;
52918;SDS011;38793;52.690;6.812;2023-09-12T14:56:31;8.73;;;7.13;;
52918;SDS011;38793;52.690;6.812;2023-09-12T14:58:57;11.27;;;7.68;;
52918;SDS011;38793;52.690;6.812;2023-09-12T15:01:23;8.70;;;7.78;;
52918;SDS011;38793;52.690;6.812;2023-09-12T15:03:52;9.07;;;6.68;;
52918;SDS011;38793;52.690;6.812;2023-09-12T15:06:18;9.88;;;5.75;;
52918;SDS011;38793;52.690;6.812;2023-09-12T15:08:44;9.68;;;6.53;;
52918;SDS011;38793;52.690;6.812;2023-09-12T15:11:10;7.55;;;5.55;;
52918;SDS011;38793;52.690;6.812;2023-09-12T15:13:36;5.00;;;4.40;;
52918;SDS011;38793;52.690;6.812;2023-09-12T15:16:02;3.58;;;3.28;;
52918;SDS011;38793;52.690;6.812;2023-09-12T15:18:28;4.53;;;4.07;;
52918;SDS011;38793;52.690;6.812;2023-09-12T15:20:54;5.93;;;3.92;;
52918;SDS011;38793;52.690;6.812;2023-09-12T15:23:20;8.35;;;4.10;;
52918;SDS011;38793;52.690;6.812;2023-09-12T15:25:48;5.07;;;4.15;;
52918;SDS011;38793;52.690;6.812;2023-09-12T15:28:14;7.22;;;4.80;;
52918;SDS011;38793;52.690;6.812;2023-09-12T15:30:39;6.03;;;4.80;;
52918;SDS011;38793;52.690;6.812;2023-09-12T15:33:05;6.20;;;4.82;;
52918;SDS011;38793;52.690;6.812;2023-09-12T15:35:31;7.53;;;5.68;;
52918;SDS011;38793;52.690;6.812;2023-09-12T15:37:56;8.15;;;5.60;;
52918;SDS011;38793;52.690;6.812;2023-09-12T15:40:22;8.43;;;6.20;;
52918;SDS011;38793;52.690;6.812;2023-09-12T15:42:48;10.52;;;7.32;;
52918;SDS011;38793;52.690;6.812;2023-09-12T15:45:14;7.68;;;6.60;;
52918;SDS011;38793;52.690;6.812;2023-09-12T15:47:41;8.18;;;6.90;;
52918;SDS011;38793;52.690;6.812;2023-09-12T15:50:06;9.93;;;7.32;;
52918;SDS011;38793;52.690;6.812;2023-09-12T15:52:32;9.50;;;6.78;;
52918;SDS011;38793;52.690;6.812;2023-09-12T15:55:03;7.45;;;6.22;;
52918;SDS011;38793;52.690;6.812;2023-09-12T15:57:32;9.38;;;6.03;;
52918;SDS011;38793;52.690;6.812;2023-09-12T15:59:58;11.38;;;6.63;;
52918;SDS011;38793;52.690;6.812;2023-09-12T16:02:25;8.50;;;6.80;;
52918;SDS011;38793;52.690;6.812;2023-09-12T16:04:51;14.07;;;6.30;;
52918;SDS011;38793;52.690;6.812;2023-09-12T16:07:16;10.88;;;5.90;;
52918;SDS011;38793;52.690;6.812;2023-09-12T16:09:42;9.13;;;5.88;;
52918;SDS011;38793;52.690;6.812;2023-09-12T16:12:07;6.28;;;5.65;;
52918;SDS011;38793;52.690;6.812;2023-09-12T16:14:33;8.00;;;5.47;;
52918;SDS011;38793;52.690;6.812;2023-09-12T16:16:59;8.13;;;4.93;;
52918;SDS011;38793;52.690;6.812;2023-09-12T16:19:24;7.25;;;5.30;;
52918;SDS011;38793;52.690;6.812;2023-09-12T16:21:50;6.93;;;4.57;;
52918;SDS011;38793;52.690;6.812;2023-09-12T16:24:16;12.00;;;4.90;;
52918;SDS011;38793;52.690;6.812;2023-09-12T16:26:41;9.60;;;5.60;;
52918;SDS011;38793;52.690;6.812;2023-09-12T16:29:07;15.18;;;7.50;;
52918;SDS011;38793;52.690;6.812;2023-09-12T16:31:32;13.32;;;6.90;;
52918;SDS011;38793;52.690;6.812;2023-09-12T16:33:58;9.80;;;6.97;;
52918;SDS011;38793;52.690;6.812;2023-09-12T16:36:24;9.60;;;6.95;;
52918;SDS011;38793;52.690;6.812;2023-09-12T16:38:50;13.55;;;6.85;;
52918;SDS011;38793;52.690;6.812;2023-09-12T16:41:15;13.63;;;7.32;;
52918;SDS011;38793;52.690;6.812;2023-09-12T16:43:41;9.63;;;7.38;;
52918;SDS011;38793;52.690;6.812;2023-09-12T16:46:06;10.23;;;7.03;;
52918;SDS011;38793;52.690;6.812;2023-09-12T16:48:32;13.57;;;7.18;;
52918;SDS011;38793;52.690;6.812;2023-09-12T16:50:59;9.95;;;7.18;;
52918;SDS011;38793;52.690;6.812;2023-09-12T16:53:25;12.43;;;7.53;;
52918;SDS011;38793;52.690;6.812;2023-09-12T16:55:51;9.73;;;6.63;;
52918;SDS011;38793;52.690;6.812;2023-09-12T16:58:17;7.25;;;6.10;;
52918;SDS011;38793;52.690;6.812;2023-09-12T17:00:43;7.13;;;6.43;;
52918;SDS011;38793;52.690;6.812;2023-09-12T17:03:08;6.60;;;5.85;;
52918;SDS011;38793;52.690;6.812;2023-09-12T17:05:34;8.07;;;6.78;;
52918;SDS011;38793;52.690;6.812;2023-09-12T17:07:59;9.15;;;6.40;;
52918;SDS011;38793;52.690;6.812;2023-09-12T17:10:25;8.93;;;6.65;;